createdAt,value
2023-02-11T00:00:22.224Z,10.10
2023-02-11T00:02:49.473Z,10.10
2023-02-11T00:05:16.876Z,10.10
2023-02-11T00:07:44.064Z,10.10
2023-02-11T00:10:11.498Z,10.10
2023-02-11T00:12:39.061Z,10.10
2023-02-11T00:15:08.044Z,10.10
2023-02-11T00:17:35.343Z,10.10
2023-02-11T00:20:02.577Z,10.10
2023-02-11T00:22:29.941Z,10.10
2023-02-11T00:24:57.316Z,10.10
2023-02-11T00:27:24.699Z,10.10
2023-02-11T00:29:52.079Z,10.10
2023-02-11T00:32:19.439Z,10.20
2023-02-11T00:34:46.731Z,10.10
2023-02-11T00:37:14.131Z,10.10
2023-02-11T00:39:42.482Z,10.20
2023-02-11T00:42:13.297Z,10.20
2023-02-11T00:44:40.593Z,10.20
2023-02-11T00:47:08.013Z,10.20
2023-02-11T00:49:37.136Z,10.10
2023-02-11T00:52:04.603Z,10.20
2023-02-11T00:54:31.937Z,10.10
2023-02-11T00:56:59.351Z,10.20
2023-02-11T00:59:27.163Z,10.10
2023-02-11T01:01:54.425Z,10.10
2023-02-11T01:04:21.941Z,10.20
2023-02-11T01:06:52.374Z,10.10
2023-02-11T01:09:21.325Z,10.20
2023-02-11T01:11:48.795Z,10.20
2023-02-11T01:14:16.672Z,10.10
2023-02-11T01:16:44.277Z,10.10
2023-02-11T01:19:11.594Z,10.20
2023-02-11T01:21:39.701Z,10.10
2023-02-11T01:24:07.198Z,10.10
2023-02-11T01:26:36.141Z,10.10
2023-02-11T01:29:03.513Z,10.10
2023-02-11T01:31:31.999Z,10.10
2023-02-11T01:34:01.602Z,10.10
2023-02-11T01:36:29.734Z,10.10
2023-02-11T01:38:56.934Z,10.10
2023-02-11T01:41:24.244Z,10.10
2023-02-11T01:43:51.610Z,10.10
2023-02-11T01:46:37.123Z,10.10
2023-02-11T01:49:10.929Z,10.10
2023-02-11T01:51:48.756Z,10.00
2023-02-11T01:54:39.604Z,10.00
2023-02-11T01:57:22.896Z,10.00
2023-02-11T01:59:56.166Z,10.00
2023-02-11T02:02:49.398Z,10.00
2023-02-11T02:05:39.304Z,10.00
2023-02-11T02:08:19.419Z,10.00
2023-02-11T02:10:53.448Z,10.00
2023-02-11T02:13:21.320Z,10.10
2023-02-11T02:16:04.213Z,10.10
2023-02-11T02:18:35.789Z,10.00
2023-02-11T02:21:44.856Z,10.00
2023-02-11T02:24:47.038Z,10.00
2023-02-11T02:27:44.288Z,9.90
2023-02-11T02:30:17.394Z,9.90
2023-02-11T02:32:47.690Z,9.90
2023-02-11T02:35:30.265Z,9.90
2023-02-11T02:38:01.763Z,9.90
2023-02-11T02:40:43.866Z,9.90
2023-02-11T02:43:11.864Z,9.90
2023-02-11T02:45:39.076Z,9.90
2023-02-11T02:48:07.527Z,9.90
2023-02-11T02:50:37.542Z,9.90
2023-02-11T02:53:37.093Z,9.90
2023-02-11T02:56:30.998Z,9.80
2023-02-11T02:59:21.789Z,9.80
2023-02-11T03:02:06.934Z,9.80
2023-02-11T03:04:52.543Z,9.70
2023-02-11T03:07:51.449Z,9.60
2023-02-11T03:10:41.467Z,9.50
2023-02-11T03:13:08.954Z,9.50
2023-02-11T03:15:43.235Z,9.60
2023-02-11T03:18:14.750Z,9.60
2023-02-11T03:20:45.403Z,9.50
2023-02-11T03:23:24.151Z,9.50
2023-02-11T03:25:58.038Z,9.60
2023-02-11T03:28:52.089Z,9.60
2023-02-11T03:31:34.608Z,9.50
2023-02-11T03:34:04.953Z,9.40
2023-02-11T03:36:54.827Z,9.30
2023-02-11T03:39:28.025Z,9.30
2023-02-11T03:41:58.793Z,9.20
2023-02-11T03:44:31.053Z,9.20
2023-02-11T03:46:59.652Z,9.10
2023-02-11T03:49:28.956Z,9.00
2023-02-11T03:51:57.843Z,8.90
2023-02-11T03:54:30.464Z,8.90
2023-02-11T03:57:01.070Z,8.80
2023-02-11T03:59:29.033Z,8.70
2023-02-11T04:01:57.836Z,8.60
2023-02-11T04:04:25.220Z,8.50
2023-02-11T04:06:52.563Z,8.50
2023-02-11T04:09:19.854Z,8.40
2023-02-11T04:11:47.272Z,8.40
2023-02-11T04:14:14.504Z,8.40
2023-02-11T04:16:41.900Z,8.30
2023-02-11T04:19:09.290Z,8.30
2023-02-11T04:21:36.657Z,8.30
2023-02-11T04:24:04.069Z,8.40
2023-02-11T04:26:31.408Z,8.30
2023-02-11T04:28:58.727Z,8.30
2023-02-11T04:31:26.166Z,8.10
2023-02-11T04:33:53.555Z,8.10
2023-02-11T04:36:21.222Z,8.10
2023-02-11T04:38:48.542Z,8.00
2023-02-11T04:41:15.837Z,7.90
2023-02-11T04:43:43.222Z,7.90
2023-02-11T04:46:10.487Z,7.90
2023-02-11T04:48:37.998Z,7.80
2023-02-11T04:51:05.502Z,7.80
2023-02-11T04:53:32.874Z,7.80
2023-02-11T04:56:00.125Z,7.90
2023-02-11T04:58:27.490Z,7.90
2023-02-11T05:00:54.834Z,7.90
2023-02-11T05:03:22.231Z,7.90
2023-02-11T05:05:49.816Z,7.90
2023-02-11T05:08:17.273Z,7.90
2023-02-11T05:10:48.294Z,7.90
2023-02-11T05:13:15.669Z,7.90
2023-02-11T05:15:42.940Z,7.90
2023-02-11T05:18:10.359Z,7.80
2023-02-11T05:20:41.744Z,7.90
2023-02-11T05:23:09.148Z,7.90
2023-02-11T05:25:36.666Z,7.80
2023-02-11T05:28:05.087Z,7.80
2023-02-11T05:30:32.787Z,7.80
2023-02-11T05:33:00.263Z,7.80
2023-02-11T05:35:27.534Z,7.80
2023-02-11T05:37:54.894Z,7.70
2023-02-11T05:40:22.207Z,7.80
2023-02-11T05:42:49.595Z,7.80
2023-02-11T05:45:16.857Z,7.90
2023-02-11T05:47:44.244Z,7.90
2023-02-11T05:50:11.574Z,7.90
2023-02-11T05:52:38.953Z,7.90
2023-02-11T05:55:06.620Z,8.00
2023-02-11T05:57:34.752Z,7.90
2023-02-11T06:00:02.463Z,8.00
2023-02-11T06:02:39.911Z,8.00
2023-02-11T06:05:07.795Z,8.00
2023-02-11T06:07:35.117Z,8.00
2023-02-11T06:10:02.464Z,7.90
2023-02-11T06:12:29.783Z,8.00
2023-02-11T06:14:57.041Z,8.00
2023-02-11T06:17:25.534Z,8.00
2023-02-11T06:19:52.904Z,8.10
2023-02-11T06:22:20.399Z,8.10
2023-02-11T06:25:00.830Z,8.20
2023-02-11T06:27:29.002Z,8.10
2023-02-11T06:29:56.426Z,8.20
2023-02-11T06:32:42.733Z,8.30
2023-02-11T06:35:12.226Z,8.40
2023-02-11T06:37:40.712Z,8.50
2023-02-11T06:40:08.323Z,8.50
2023-02-11T06:42:36.376Z,8.70
2023-02-11T06:45:06.284Z,8.70
2023-02-11T06:47:33.580Z,8.80
2023-02-11T06:50:01.061Z,8.80
2023-02-11T06:52:28.500Z,8.80
2023-02-11T06:54:55.835Z,8.90
2023-02-11T06:57:23.171Z,9.00
2023-02-11T06:59:50.523Z,9.10
2023-02-11T07:02:20.688Z,9.10
2023-02-11T07:04:48.425Z,9.20
2023-02-11T07:07:16.199Z,9.30
2023-02-11T07:09:43.707Z,9.40
2023-02-11T07:12:12.034Z,9.60
2023-02-11T07:14:39.584Z,9.60
2023-02-11T07:17:07.594Z,9.80
2023-02-11T07:19:34.853Z,9.80
2023-02-11T07:22:02.242Z,9.80
2023-02-11T07:24:29.609Z,9.70
2023-02-11T07:26:56.913Z,9.50
2023-02-11T07:29:24.267Z,9.40
2023-02-11T07:31:51.651Z,9.30
2023-02-11T07:34:18.880Z,9.30
2023-02-11T07:36:46.294Z,9.30
2023-02-11T07:39:13.802Z,9.30
2023-02-11T07:41:41.249Z,9.30
2023-02-11T07:44:08.603Z,9.30
2023-02-11T07:46:37.042Z,9.40
2023-02-11T07:49:04.509Z,9.40
2023-02-11T07:51:32.285Z,9.50
2023-02-11T07:54:00.652Z,9.60
2023-02-11T07:56:29.532Z,9.70
2023-02-11T07:59:01.969Z,9.80
2023-02-11T08:01:30.041Z,10.00
2023-02-11T08:03:58.582Z,10.10
2023-02-11T08:06:30.510Z,10.00
2023-02-11T08:08:58.611Z,9.90
2023-02-11T08:11:28.190Z,9.80
2023-02-11T08:13:56.980Z,9.90
2023-02-11T08:16:27.315Z,10.00
2023-02-11T08:18:57.902Z,10.10
2023-02-11T08:21:25.626Z,10.20
2023-02-11T08:23:53.185Z,10.40
2023-02-11T08:26:24.008Z,10.50
2023-02-11T08:28:53.446Z,10.70
2023-02-11T08:31:26.851Z,10.80
2023-02-11T08:33:58.169Z,11.00
2023-02-11T08:36:29.461Z,11.00
2023-02-11T08:39:16.026Z,11.10
2023-02-11T08:41:47.052Z,11.30
2023-02-11T08:44:14.344Z,11.40
2023-02-11T08:46:41.614Z,11.40
2023-02-11T08:49:08.864Z,11.50
2023-02-11T08:51:36.224Z,11.70
2023-02-11T08:54:03.686Z,12.00
2023-02-11T08:56:32.566Z,12.10
2023-02-11T08:58:59.985Z,12.20
2023-02-11T09:01:29.923Z,12.30
2023-02-11T09:03:58.328Z,12.30
2023-02-11T09:06:27.000Z,12.30
2023-02-11T09:08:56.616Z,12.30
2023-02-11T09:11:31.594Z,12.50
2023-02-11T09:14:00.295Z,12.50
2023-02-11T09:16:31.964Z,12.50
2023-02-11T09:19:00.868Z,12.60
2023-02-11T09:21:28.749Z,12.50
2023-02-11T09:23:56.680Z,12.40
2023-02-11T09:26:27.306Z,12.30
2023-02-11T09:28:54.940Z,12.40
2023-02-11T09:31:24.809Z,12.40
2023-02-11T09:33:55.430Z,12.60
2023-02-11T09:36:25.672Z,12.70
2023-02-11T09:38:54.015Z,12.60
2023-02-11T09:41:21.222Z,12.60
2023-02-11T09:43:49.750Z,12.80
2023-02-11T09:46:19.060Z,12.90
2023-02-11T09:48:49.396Z,13.00
2023-02-11T09:51:46.531Z,13.10
2023-02-11T09:54:49.872Z,13.00
2023-02-11T09:57:28.251Z,13.00
2023-02-11T09:59:57.381Z,13.00
2023-02-11T10:02:36.629Z,13.00
2023-02-11T10:05:17.730Z,13.00
2023-02-11T10:07:47.781Z,13.10
2023-02-11T10:10:30.410Z,13.20
2023-02-11T10:13:19.218Z,13.30
2023-02-11T10:16:05.966Z,13.40
2023-02-11T10:18:41.544Z,13.40
2023-02-11T10:21:23.951Z,13.60
2023-02-11T10:23:54.665Z,13.50
2023-02-11T10:26:22.448Z,13.70
2023-02-11T10:28:53.299Z,13.80
2023-02-11T10:31:42.240Z,13.80
2023-02-11T10:34:13.998Z,13.90
2023-02-11T10:36:44.040Z,13.80
2023-02-11T10:39:20.457Z,13.70
2023-02-11T10:42:01.300Z,13.90
2023-02-11T10:44:32.886Z,13.90
2023-02-11T10:47:04.687Z,14.10
2023-02-11T10:49:37.652Z,14.00
2023-02-11T10:52:28.054Z,14.20
2023-02-11T10:55:09.831Z,14.40
2023-02-11T10:57:44.699Z,14.60
2023-02-11T11:00:18.211Z,14.30
2023-02-11T11:02:46.908Z,14.20
2023-02-11T11:05:21.072Z,14.10
2023-02-11T11:08:06.923Z,13.90
2023-02-11T11:10:46.706Z,14.20
2023-02-11T11:13:28.059Z,14.00
2023-02-11T11:16:12.265Z,14.30
2023-02-11T11:18:50.564Z,14.70
2023-02-11T11:21:36.991Z,15.40
2023-02-11T11:24:04.942Z,16.10
2023-02-11T11:26:44.331Z,16.30
2023-02-11T11:29:27.942Z,16.40
2023-02-11T11:31:59.591Z,16.40
2023-02-11T11:34:31.494Z,15.70
2023-02-11T11:36:59.042Z,15.50
2023-02-11T11:39:35.401Z,15.60
2023-02-11T11:42:06.252Z,16.00
2023-02-11T11:44:39.997Z,16.20
2023-02-11T11:47:07.221Z,15.70
2023-02-11T11:49:44.196Z,15.30
2023-02-11T11:52:26.981Z,15.20
2023-02-11T11:55:00.748Z,15.30
2023-02-11T11:57:30.252Z,15.20
2023-02-11T11:59:58.684Z,15.70
2023-02-11T12:02:56.702Z,16.40
2023-02-11T12:05:28.093Z,16.10
2023-02-11T12:08:13.287Z,15.70
2023-02-11T12:11:10.893Z,15.50
2023-02-11T12:13:50.370Z,16.10
2023-02-11T12:16:49.866Z,16.60
2023-02-11T12:19:28.036Z,16.90
2023-02-11T12:22:20.917Z,17.00
2023-02-11T12:25:21.315Z,17.50
2023-02-11T12:28:07.553Z,17.20
2023-02-11T12:30:57.443Z,17.10
2023-02-11T12:33:36.668Z,16.60
2023-02-11T12:36:44.329Z,15.70
2023-02-11T12:39:49.173Z,15.50
2023-02-11T12:43:02.686Z,14.90
2023-02-11T12:45:45.059Z,14.30
2023-02-11T12:48:13.001Z,14.30
2023-02-11T12:51:07.365Z,13.90
2023-02-11T12:53:41.404Z,13.90
2023-02-11T12:56:24.418Z,13.60
2023-02-11T12:58:56.282Z,13.60
2023-02-11T13:01:40.763Z,13.50
2023-02-11T13:04:27.090Z,13.50
2023-02-11T13:07:10.044Z,13.30
2023-02-11T13:09:45.728Z,13.30
2023-02-11T13:12:33.166Z,13.50
2023-02-11T13:15:08.188Z,13.40
2023-02-11T13:17:47.243Z,13.20
2023-02-11T13:20:28.679Z,13.10
2023-02-11T13:23:10.347Z,13.20
2023-02-11T13:26:13.191Z,13.20
2023-02-11T13:28:54.081Z,13.30
2023-02-11T13:31:21.665Z,13.20
2023-02-11T13:33:50.087Z,13.30
2023-02-11T13:36:24.857Z,13.40
2023-02-11T13:39:19.641Z,13.40
2023-02-11T13:41:52.516Z,13.40
2023-02-11T13:44:25.434Z,13.30
2023-02-11T13:46:57.357Z,13.40
2023-02-11T13:49:54.619Z,13.50
2023-02-11T13:52:32.271Z,13.60
2023-02-11T13:55:14.705Z,13.80
2023-02-11T13:57:42.870Z,13.90
2023-02-11T14:00:44.038Z,13.90
2023-02-11T14:03:30.201Z,13.90
2023-02-11T14:06:28.053Z,13.90
2023-02-11T14:09:10.642Z,14.00
2023-02-11T14:11:43.437Z,14.20
2023-02-11T14:14:27.483Z,14.10
2023-02-11T14:17:07.038Z,14.00
2023-02-11T14:19:37.007Z,14.00
2023-02-11T14:22:06.348Z,14.20
2023-02-11T14:24:33.679Z,14.20
2023-02-11T14:27:09.572Z,14.00
2023-02-11T14:29:42.268Z,13.90
2023-02-11T14:32:27.896Z,13.70
2023-02-11T14:35:07.604Z,13.60
2023-02-11T14:37:50.815Z,13.40
2023-02-11T14:40:32.306Z,13.40
2023-02-11T14:43:18.896Z,13.30
2023-02-11T14:45:54.495Z,13.30
2023-02-11T14:48:28.805Z,13.20
2023-02-11T14:51:23.656Z,13.30
2023-02-11T14:53:56.179Z,13.30
2023-02-11T14:56:26.756Z,13.30
2023-02-11T14:58:55.566Z,13.40
2023-02-11T15:01:27.346Z,13.40
2023-02-11T15:03:59.208Z,13.50
2023-02-11T15:06:36.877Z,13.40
2023-02-11T15:09:32.515Z,13.40
2023-02-11T15:12:00.026Z,13.40
2023-02-11T15:14:30.665Z,13.40
2023-02-11T15:17:01.325Z,13.40
2023-02-11T15:19:39.986Z,13.40
2023-02-11T15:22:29.292Z,13.40
2023-02-11T15:25:10.216Z,13.40
2023-02-11T15:27:42.561Z,13.40
2023-02-11T15:30:22.213Z,13.30
2023-02-11T15:32:51.101Z,13.20
2023-02-11T15:35:19.359Z,13.10
2023-02-11T15:37:48.845Z,13.10
2023-02-11T15:40:20.648Z,13.00
2023-02-11T15:42:59.081Z,12.80
2023-02-11T15:45:33.905Z,12.80
2023-02-11T15:48:15.153Z,12.70
2023-02-11T15:50:48.846Z,12.60
2023-02-11T15:53:40.765Z,12.50
2023-02-11T15:56:17.642Z,12.50
2023-02-11T15:58:48.095Z,12.50
2023-02-11T16:01:15.985Z,12.40
2023-02-11T16:03:44.490Z,12.40
2023-02-11T16:06:26.720Z,12.40
2023-02-11T16:09:01.236Z,12.40
2023-02-11T16:11:35.170Z,12.30
2023-02-11T16:14:19.603Z,12.30
2023-02-11T16:16:50.426Z,12.20
2023-02-11T16:19:21.485Z,12.20
2023-02-11T16:21:50.249Z,12.10
2023-02-11T16:24:37.767Z,12.10
2023-02-11T16:27:30.619Z,12.00
2023-02-11T16:29:59.032Z,12.00
2023-02-11T16:32:28.440Z,11.90
2023-02-11T16:34:58.136Z,11.90
2023-02-11T16:37:26.170Z,11.80
2023-02-11T16:39:57.062Z,11.80
2023-02-11T16:42:24.913Z,11.70
2023-02-11T16:44:52.437Z,11.70
2023-02-11T16:47:29.297Z,11.60
2023-02-11T16:49:57.735Z,11.60
2023-02-11T16:52:25.672Z,11.60
2023-02-11T16:54:53.719Z,11.50
2023-02-11T16:57:23.849Z,11.50
2023-02-11T16:59:52.283Z,11.40
2023-02-11T17:02:27.595Z,11.30
2023-02-11T17:04:57.633Z,11.20
2023-02-11T17:07:25.113Z,11.10
2023-02-11T17:09:52.410Z,11.00
2023-02-11T17:12:20.768Z,11.00
2023-02-11T17:14:48.077Z,11.00
2023-02-11T17:17:15.949Z,10.90
2023-02-11T17:19:43.631Z,10.90
2023-02-11T17:22:12.173Z,10.80
2023-02-11T17:24:39.593Z,10.80
2023-02-11T17:27:06.922Z,10.70
2023-02-11T17:29:34.216Z,10.60
2023-02-11T17:32:01.586Z,10.60
2023-02-11T17:34:29.428Z,10.60
2023-02-11T17:36:58.115Z,10.60
2023-02-11T17:39:26.113Z,10.50
2023-02-11T17:41:53.611Z,10.60
2023-02-11T17:44:20.910Z,10.60
2023-02-11T17:46:48.215Z,10.70
2023-02-11T17:49:16.539Z,10.70
2023-02-11T17:51:44.080Z,10.80
2023-02-11T17:54:17.445Z,10.80
2023-02-11T17:56:45.856Z,10.90
2023-02-11T17:59:13.733Z,10.90
2023-02-11T18:01:42.554Z,10.90
2023-02-11T18:04:14.991Z,10.90
2023-02-11T18:06:42.460Z,10.90
2023-02-11T18:09:09.775Z,10.80
2023-02-11T18:11:39.560Z,10.80
2023-02-11T18:14:08.603Z,10.80
2023-02-11T18:16:39.126Z,10.70
2023-02-11T18:19:07.841Z,10.70
2023-02-11T18:21:35.918Z,10.70
2023-02-11T18:24:06.752Z,10.70
2023-02-11T18:26:35.648Z,10.70
2023-02-11T18:29:04.357Z,10.60
2023-02-11T18:31:31.821Z,10.60
2023-02-11T18:33:59.117Z,10.60
2023-02-11T18:36:26.504Z,10.60
2023-02-11T18:38:54.452Z,10.60
2023-02-11T18:41:22.110Z,10.60
2023-02-11T18:43:49.762Z,10.60
2023-02-11T18:46:17.678Z,10.60
2023-02-11T18:48:45.497Z,10.50
2023-02-11T18:51:18.917Z,10.40
2023-02-11T18:53:46.848Z,10.40
2023-02-11T18:56:16.823Z,10.30
2023-02-11T18:58:44.459Z,10.20
2023-02-11T19:01:21.216Z,10.10
2023-02-11T19:03:48.816Z,10.10
2023-02-11T19:06:25.526Z,10.00
2023-02-11T19:09:00.814Z,10.00
2023-02-11T19:11:47.206Z,9.90
2023-02-11T19:14:25.544Z,9.90
2023-02-11T19:16:57.454Z,9.80
2023-02-11T19:19:28.125Z,9.70
2023-02-11T19:21:59.120Z,9.60
2023-02-11T19:24:27.924Z,9.60
2023-02-11T19:26:58.513Z,9.50
2023-02-11T19:29:26.675Z,9.50
2023-02-11T19:31:54.681Z,9.40
2023-02-11T19:34:22.669Z,9.30
2023-02-11T19:36:51.259Z,9.20
2023-02-11T19:39:19.764Z,9.20
2023-02-11T19:41:47.114Z,9.20
2023-02-11T19:44:14.982Z,9.20
2023-02-11T19:46:42.716Z,9.10
2023-02-11T19:49:11.582Z,9.10
2023-02-11T19:51:39.703Z,9.10
2023-02-11T19:54:08.135Z,9.10
2023-02-11T19:56:38.051Z,9.20
2023-02-11T19:59:09.064Z,9.10
2023-02-11T20:01:37.165Z,9.10
2023-02-11T20:04:04.618Z,9.10
2023-02-11T20:06:32.920Z,9.00
2023-02-11T20:09:06.602Z,9.00
2023-02-11T20:11:35.113Z,9.00
2023-02-11T20:14:03.786Z,9.00
2023-02-11T20:16:46.929Z,9.00
2023-02-11T20:19:20.334Z,8.90
2023-02-11T20:21:48.460Z,8.90
2023-02-11T20:24:18.176Z,8.80
2023-02-11T20:26:47.119Z,8.80
2023-02-11T20:29:16.109Z,8.80
2023-02-11T20:31:43.719Z,8.70
2023-02-11T20:34:12.465Z,8.60
2023-02-11T20:36:40.735Z,8.60
2023-02-11T20:39:09.360Z,8.50
2023-02-11T20:41:40.150Z,8.40
2023-02-11T20:44:10.479Z,8.40
2023-02-11T20:46:42.757Z,8.30
2023-02-11T20:49:11.560Z,8.30
2023-02-11T20:51:39.350Z,8.30
2023-02-11T20:54:07.056Z,8.20
2023-02-11T20:56:37.209Z,8.20
2023-02-11T20:59:05.780Z,8.20
2023-02-11T21:01:40.411Z,8.10
2023-02-11T21:04:12.294Z,8.10
2023-02-11T21:06:48.996Z,8.10
2023-02-11T21:09:22.694Z,8.00
2023-02-11T21:11:51.894Z,8.00
2023-02-11T21:14:23.581Z,7.90
2023-02-11T21:16:51.018Z,7.90
2023-02-11T21:19:20.240Z,8.00
2023-02-11T21:21:47.720Z,8.00
2023-02-11T21:24:15.607Z,8.00
2023-02-11T21:26:43.168Z,8.00
2023-02-11T21:29:11.762Z,7.90
2023-02-11T21:31:40.032Z,7.80
2023-02-11T21:34:08.075Z,7.80
2023-02-11T21:36:35.786Z,7.70
2023-02-11T21:39:04.158Z,7.70
2023-02-11T21:41:31.827Z,7.60
2023-02-11T21:44:02.076Z,7.60
2023-02-11T21:46:32.212Z,7.60
2023-02-11T21:49:02.544Z,7.50
2023-02-11T21:51:30.430Z,7.50
2023-02-11T21:54:00.025Z,7.40
2023-02-11T21:56:28.983Z,7.40
2023-02-11T21:58:58.051Z,7.50
2023-02-11T22:01:31.478Z,7.50
2023-02-11T22:04:00.584Z,7.60
2023-02-11T22:06:33.005Z,7.70
2023-02-11T22:09:04.601Z,7.60
2023-02-11T22:11:31.939Z,7.60
2023-02-11T22:14:00.001Z,7.50
2023-02-11T22:16:28.406Z,7.50
2023-02-11T22:18:58.799Z,7.50
2023-02-11T22:21:26.627Z,7.50
2023-02-11T22:23:56.517Z,7.40
2023-02-11T22:26:26.246Z,7.30
2023-02-11T22:28:54.988Z,7.30
2023-02-11T22:31:29.422Z,7.20
2023-02-11T22:33:57.883Z,7.20
2023-02-11T22:36:30.841Z,7.20
2023-02-11T22:39:04.447Z,7.20
2023-02-11T22:41:32.497Z,7.20
2023-02-11T22:43:59.761Z,7.20
2023-02-11T22:46:27.410Z,7.30
2023-02-11T22:48:55.170Z,7.20
2023-02-11T22:51:27.980Z,7.20
2023-02-11T22:54:00.879Z,7.10
2023-02-11T22:56:33.829Z,7.00
2023-02-11T22:59:04.615Z,7.00
2023-02-11T23:01:32.463Z,7.00
2023-02-11T23:04:02.021Z,7.00
2023-02-11T23:06:29.560Z,6.90
2023-02-11T23:08:57.133Z,6.90
2023-02-11T23:11:26.931Z,6.90
2023-02-11T23:13:55.107Z,6.90
2023-02-11T23:16:26.525Z,7.00
2023-02-11T23:18:54.982Z,7.10
2023-02-11T23:21:25.034Z,7.30
2023-02-11T23:24:04.399Z,7.40
2023-02-11T23:26:31.941Z,7.30
2023-02-11T23:29:00.363Z,7.30
2023-02-11T23:31:37.743Z,7.20
2023-02-11T23:34:06.698Z,7.10
2023-02-11T23:36:34.716Z,7.00
2023-02-11T23:39:02.289Z,7.00
2023-02-11T23:41:29.699Z,6.90
2023-02-11T23:43:58.469Z,7.00
2023-02-11T23:46:27.017Z,6.90
2023-02-11T23:48:54.600Z,6.90
2023-02-11T23:51:22.151Z,6.90
2023-02-11T23:53:50.621Z,6.80
2023-02-11T23:56:21.138Z,6.80
2023-02-11T23:58:53.737Z,6.80
